createdAt,value
2023-05-21T00:02:15.329Z,101080.72
2023-05-21T00:04:43.776Z,101078.19
2023-05-21T00:07:12.790Z,101076.41
2023-05-21T00:09:41.245Z,101078.19
2023-05-21T00:12:11.197Z,101054.53
2023-05-21T00:14:41.208Z,101075.53
2023-05-21T00:17:09.653Z,101078.16
2023-05-21T00:19:39.852Z,101057.94
2023-05-21T00:22:08.395Z,101062.59
2023-05-21T00:24:36.864Z,101067.97
2023-05-21T00:27:05.559Z,101061.91
2023-05-21T00:29:34.033Z,101060.28
2023-05-21T00:32:03.940Z,101054.06
2023-05-21T00:34:32.579Z,101054.84
2023-05-21T00:37:02.690Z,101051.66
2023-05-21T00:39:31.328Z,101051.63
2023-05-21T00:42:00.479Z,101047.19
2023-05-21T00:44:34.101Z,101048.22
2023-05-21T00:47:04.791Z,101041.25
2023-05-21T00:49:33.504Z,101042.72
2023-05-21T00:52:02.551Z,101041.59
2023-05-21T00:54:32.903Z,101034.34
2023-05-21T00:57:03.969Z,101028.00
2023-05-21T00:59:33.975Z,101032.28
2023-05-21T01:02:06.806Z,101027.06
2023-05-21T01:04:35.384Z,101033.97
2023-05-21T01:07:03.861Z,101029.78
2023-05-21T01:09:32.331Z,101033.38
2023-05-21T01:12:01.772Z,101033.50
2023-05-21T01:14:32.848Z,101031.91
2023-05-21T01:17:03.989Z,101028.41
2023-05-21T01:19:32.789Z,101022.25
2023-05-21T01:22:06.214Z,101023.34
2023-05-21T01:24:36.524Z,101024.34
2023-05-21T01:27:07.716Z,101019.88
2023-05-21T01:29:36.355Z,101014.56
2023-05-21T01:32:17.271Z,101009.38
2023-05-21T01:34:56.608Z,101012.06
2023-05-21T01:37:38.688Z,101008.66
2023-05-21T01:40:16.301Z,101000.84
2023-05-21T01:42:48.443Z,100973.69
2023-05-21T01:45:19.105Z,100983.38
2023-05-21T01:47:51.332Z,100980.91
2023-05-21T01:50:20.641Z,100950.56
2023-05-21T01:52:53.974Z,100997.59
2023-05-21T01:55:25.427Z,100974.97
2023-05-21T01:57:54.682Z,101009.25
2023-05-21T02:00:25.695Z,101001.28
2023-05-21T02:02:54.359Z,100998.59
2023-05-21T02:05:22.923Z,101000.41
2023-05-21T02:07:53.372Z,101001.22
2023-05-21T02:10:23.283Z,100950.56
2023-05-21T02:12:52.808Z,100984.75
2023-05-21T02:15:21.446Z,100996.00
2023-05-21T02:17:51.889Z,100997.91
2023-05-21T02:20:20.735Z,100995.28
2023-05-21T02:22:50.724Z,101000.41
2023-05-21T02:25:20.790Z,100991.72
2023-05-21T02:27:53.655Z,100961.84
2023-05-21T02:30:22.382Z,100988.91
2023-05-21T02:32:50.977Z,100992.47
2023-05-21T02:35:19.494Z,100985.25
2023-05-21T02:37:49.055Z,100972.38
2023-05-21T02:40:17.917Z,100968.00
2023-05-21T02:42:46.345Z,100992.47
2023-05-21T02:45:20.966Z,100981.03
2023-05-21T02:47:49.680Z,100968.53
2023-05-21T02:50:22.425Z,100989.22
2023-05-21T02:52:59.698Z,100982.34
2023-05-21T02:55:28.429Z,100951.06
2023-05-21T02:57:57.251Z,100976.44
2023-05-21T03:00:27.394Z,100972.00
2023-05-21T03:02:56.043Z,100922.78
2023-05-21T03:05:24.846Z,100975.34
2023-05-21T03:07:53.643Z,100970.06
2023-05-21T03:10:22.474Z,100930.00
2023-05-21T03:12:53.511Z,100971.91
2023-05-21T03:15:24.109Z,100969.09
2023-05-21T03:17:55.594Z,100969.09
2023-05-21T03:20:25.092Z,100977.16
2023-05-21T03:22:55.104Z,100970.09
2023-05-21T03:25:25.383Z,100979.72
2023-05-21T03:27:55.707Z,100978.00
2023-05-21T03:30:46.325Z,100964.78
2023-05-21T03:33:35.047Z,100960.16
2023-05-21T03:36:12.435Z,100978.16
2023-05-21T03:38:40.890Z,100980.75
2023-05-21T03:41:12.136Z,100968.34
2023-05-21T03:43:42.386Z,100981.25
2023-05-21T03:46:11.096Z,100982.91
2023-05-21T03:49:01.489Z,100961.94
2023-05-21T03:51:32.185Z,100982.56
2023-05-21T03:54:01.503Z,100979.66
2023-05-21T03:56:30.523Z,100973.16
2023-05-21T03:58:59.032Z,100973.75
2023-05-21T04:01:28.461Z,100948.19
2023-05-21T04:03:58.571Z,100969.56
2023-05-21T04:06:30.967Z,100978.84
2023-05-21T04:08:59.766Z,100979.34
2023-05-21T04:11:28.208Z,100912.69
2023-05-21T04:13:56.750Z,100980.53
2023-05-21T04:16:25.248Z,100977.50
2023-05-21T04:18:56.371Z,100986.88
2023-05-21T04:21:31.942Z,100943.69
2023-05-21T04:24:01.833Z,100993.94
2023-05-21T04:26:45.641Z,100991.97
2023-05-21T04:29:18.029Z,100991.41
2023-05-21T04:31:46.967Z,100991.69
2023-05-21T04:34:18.019Z,100988.59
2023-05-21T04:36:46.754Z,100974.53
2023-05-21T04:39:17.529Z,100995.09
2023-05-21T04:41:48.101Z,100994.44
2023-05-21T04:44:16.806Z,101000.25
2023-05-21T04:46:47.053Z,101000.38
2023-05-21T04:49:16.145Z,100968.03
2023-05-21T04:51:45.217Z,100941.63
2023-05-21T04:54:14.240Z,100997.19
2023-05-21T04:56:44.469Z,100997.88
2023-05-21T04:59:13.000Z,100987.13
2023-05-21T05:01:44.023Z,101009.81
2023-05-21T05:04:12.795Z,101001.78
2023-05-21T05:06:41.890Z,100990.19
2023-05-21T05:09:10.875Z,101008.06
2023-05-21T05:11:39.389Z,101007.06
2023-05-21T05:14:09.524Z,101011.41
2023-05-21T05:16:38.439Z,101008.72
2023-05-21T05:19:07.001Z,100961.22
2023-05-21T05:21:35.651Z,101005.72
2023-05-21T05:24:04.153Z,101004.28
2023-05-21T05:26:33.875Z,100990.25
2023-05-21T05:29:02.452Z,101006.97
2023-05-21T05:31:32.384Z,101001.97
2023-05-21T05:34:01.299Z,101007.09
2023-05-21T05:36:31.458Z,101005.31
2023-05-21T05:38:59.908Z,101012.03
2023-05-21T05:41:29.140Z,101005.03
2023-05-21T05:43:58.158Z,101005.28
2023-05-21T05:46:32.170Z,101012.00
2023-05-21T05:49:00.767Z,100991.94
2023-05-21T05:51:30.186Z,101008.50
2023-05-21T05:53:58.728Z,100957.69
2023-05-21T05:56:27.691Z,100971.47
2023-05-21T05:58:56.152Z,100993.41
2023-05-21T06:01:26.263Z,100999.34
2023-05-21T06:03:57.418Z,101005.91
2023-05-21T06:06:26.638Z,100921.94
2023-05-21T06:08:55.551Z,100976.34
2023-05-21T06:11:25.703Z,100999.56
2023-05-21T06:13:54.223Z,100968.00
2023-05-21T06:16:23.397Z,100998.88
2023-05-21T06:18:51.959Z,101003.06
2023-05-21T06:21:21.997Z,101000.75
2023-05-21T06:23:50.529Z,101003.56
2023-05-21T06:26:19.852Z,100893.81
2023-05-21T06:28:50.292Z,101012.34
2023-05-21T06:31:18.899Z,101006.63
2023-05-21T06:33:49.424Z,101008.13
2023-05-21T06:36:19.641Z,101013.59
2023-05-21T06:38:49.508Z,101008.56
2023-05-21T06:41:18.045Z,100999.63
2023-05-21T06:43:53.448Z,101003.84
2023-05-21T06:46:35.903Z,100955.31
2023-05-21T06:49:08.296Z,100958.91
2023-05-21T06:51:37.441Z,101005.59
2023-05-21T06:54:08.463Z,101017.63
2023-05-21T06:56:39.405Z,101021.53
2023-05-21T06:59:07.951Z,101012.81
2023-05-21T07:01:36.960Z,101001.00
2023-05-21T07:04:06.252Z,101019.28
2023-05-21T07:06:34.985Z,100991.00
2023-05-21T07:09:03.909Z,101014.69
2023-05-21T07:11:34.334Z,100979.22
2023-05-21T07:14:05.409Z,101010.69
2023-05-21T07:16:36.129Z,101008.09
2023-05-21T07:19:04.833Z,100963.19
2023-05-21T07:21:33.989Z,101004.13
2023-05-21T07:24:03.091Z,100998.38
2023-05-21T07:26:32.979Z,101008.88
2023-05-21T07:29:03.036Z,101007.13
2023-05-21T07:31:31.607Z,101002.78
2023-05-21T07:34:00.167Z,101001.44
2023-05-21T07:36:33.572Z,100993.59
2023-05-21T07:39:03.758Z,100999.38
2023-05-21T07:41:34.031Z,100994.94
2023-05-21T07:44:06.838Z,100995.72
2023-05-21T07:46:39.627Z,100989.28
2023-05-21T07:49:10.796Z,100999.03
2023-05-21T07:51:39.417Z,100991.56
2023-05-21T07:54:08.017Z,100999.13
2023-05-21T07:56:39.310Z,100999.56
2023-05-21T07:59:11.218Z,101004.16
2023-05-21T08:01:44.376Z,101003.84
2023-05-21T08:04:14.347Z,101008.25
2023-05-21T08:06:43.172Z,101011.47
2023-05-21T08:09:12.351Z,101015.81
2023-05-21T08:11:42.184Z,101017.84
2023-05-21T08:14:11.673Z,101016.03
2023-05-21T08:16:40.396Z,101022.59
2023-05-21T08:19:08.942Z,100990.31
2023-05-21T08:21:37.475Z,101021.91
2023-05-21T08:24:06.131Z,101025.06
2023-05-21T08:26:34.641Z,101011.41
2023-05-21T08:29:05.346Z,101026.81
2023-05-21T08:31:34.357Z,101015.47
2023-05-21T08:34:02.986Z,101022.97
2023-05-21T08:36:43.135Z,101023.53
2023-05-21T08:39:26.757Z,101005.31
2023-05-21T08:42:10.464Z,101005.19
2023-05-21T08:44:52.972Z,101012.47
2023-05-21T08:47:28.064Z,101013.59
2023-05-21T08:49:57.629Z,101019.19
2023-05-21T08:52:27.529Z,101011.97
2023-05-21T08:54:57.941Z,101013.16
2023-05-21T08:57:28.448Z,101009.25
2023-05-21T09:00:00.105Z,101012.94
2023-05-21T09:02:34.325Z,101017.44
2023-05-21T09:05:05.715Z,101006.91
2023-05-21T09:07:44.059Z,101008.00
2023-05-21T09:10:32.748Z,101009.34
2023-05-21T09:13:02.274Z,101016.50
2023-05-21T09:15:32.637Z,101006.47
2023-05-21T09:18:01.627Z,100997.63
2023-05-21T09:20:42.615Z,101014.38
2023-05-21T09:23:16.728Z,101003.47
2023-05-21T09:25:48.320Z,101007.41
2023-05-21T09:28:26.392Z,101002.34
2023-05-21T09:30:56.265Z,101013.50
2023-05-21T09:33:30.715Z,101011.78
2023-05-21T09:35:59.899Z,101006.47
2023-05-21T09:38:29.504Z,101010.00
2023-05-21T09:40:58.798Z,101006.06
2023-05-21T09:43:28.705Z,101009.91
2023-05-21T09:46:02.195Z,101010.00
2023-05-21T09:48:36.469Z,100987.44
2023-05-21T09:51:11.958Z,101006.88
2023-05-21T09:53:53.051Z,101005.56
2023-05-21T09:56:24.422Z,101001.81
2023-05-21T09:58:57.553Z,100994.94
2023-05-21T10:01:28.450Z,100995.59
2023-05-21T10:03:58.937Z,100987.94
2023-05-21T10:06:30.080Z,100965.19
2023-05-21T10:09:05.906Z,100989.56
2023-05-21T10:11:37.651Z,100981.16
2023-05-21T10:14:08.294Z,100948.19
2023-05-21T10:16:38.968Z,100978.63
2023-05-21T10:19:11.151Z,100975.69
2023-05-21T10:21:42.023Z,100951.84
2023-05-21T10:24:11.885Z,100967.97
2023-05-21T10:26:42.520Z,100962.81
2023-05-21T10:29:13.511Z,100915.88
2023-05-21T10:31:49.845Z,100957.41
2023-05-21T10:34:19.020Z,100967.19
2023-05-21T10:36:50.424Z,100945.91
2023-05-21T10:39:24.088Z,100957.16
2023-05-21T10:42:06.781Z,100953.31
2023-05-21T10:44:59.193Z,100952.94
2023-05-21T10:48:00.009Z,100957.28
2023-05-21T10:51:03.778Z,100942.25
2023-05-21T10:53:57.367Z,100881.56
2023-05-21T10:56:32.857Z,100943.41
2023-05-21T10:59:23.042Z,100938.25
2023-05-21T11:01:53.691Z,100945.03
2023-05-21T11:04:28.829Z,100930.59
2023-05-21T11:06:59.902Z,100930.31
2023-05-21T11:09:28.807Z,100923.66
2023-05-21T11:12:00.870Z,100947.66
2023-05-21T11:14:36.434Z,100933.44
2023-05-21T11:17:12.234Z,100865.59
2023-05-21T11:19:44.195Z,100945.13
2023-05-21T11:22:24.462Z,100913.81
2023-05-21T11:24:54.954Z,100935.09
2023-05-21T11:27:42.335Z,100913.28
2023-05-21T11:30:17.028Z,100927.53
2023-05-21T11:33:19.957Z,100915.06
2023-05-21T11:36:00.661Z,100934.09
2023-05-21T11:38:30.965Z,100863.53
2023-05-21T11:41:05.066Z,100925.59
2023-05-21T11:43:33.850Z,100932.50
2023-05-21T11:46:03.300Z,100903.63
2023-05-21T11:48:33.315Z,100932.63
2023-05-21T11:51:04.129Z,100931.69
2023-05-21T11:53:32.732Z,100930.97
2023-05-21T11:56:03.995Z,100904.44
2023-05-21T11:58:33.062Z,100913.78
2023-05-21T12:01:01.588Z,100919.25
2023-05-21T12:03:30.613Z,100923.66
2023-05-21T12:06:08.461Z,100923.81
2023-05-21T12:08:38.399Z,100861.47
2023-05-21T12:11:07.278Z,100926.91
2023-05-21T12:13:35.904Z,100922.06
2023-05-21T12:16:06.783Z,100914.72
2023-05-21T12:18:37.534Z,100918.81
2023-05-21T12:21:12.373Z,100926.59
2023-05-21T12:23:41.251Z,100929.06
2023-05-21T12:26:11.667Z,100927.53
2023-05-21T12:28:41.140Z,100923.03
2023-05-21T12:31:17.261Z,100882.88
2023-05-21T12:33:47.358Z,100902.88
2023-05-21T12:36:27.515Z,100755.78
2023-05-21T12:38:56.413Z,100901.41
2023-05-21T12:41:25.309Z,100850.16
2023-05-21T12:43:53.872Z,100890.00
2023-05-21T12:46:23.615Z,100929.28
2023-05-21T12:48:55.539Z,100916.97
2023-05-21T12:51:25.444Z,100934.00
2023-05-21T12:53:54.341Z,100926.03
2023-05-21T12:56:26.290Z,100884.41
2023-05-21T12:58:55.707Z,100925.25
2023-05-21T13:01:24.193Z,100873.00
2023-05-21T13:03:52.872Z,100918.00
2023-05-21T13:06:21.430Z,100884.03
2023-05-21T13:08:51.523Z,100903.09
2023-05-21T13:11:19.981Z,100862.00
2023-05-21T13:13:48.602Z,100912.28
2023-05-21T13:16:17.115Z,100898.63
2023-05-21T13:18:45.706Z,100891.56
2023-05-21T13:21:14.211Z,100876.69
2023-05-21T13:23:42.648Z,100889.41
2023-05-21T13:26:12.566Z,100880.03
2023-05-21T13:28:42.730Z,100885.84
2023-05-21T13:31:12.226Z,100883.59
2023-05-21T13:33:40.999Z,100843.19
2023-05-21T13:36:09.938Z,100835.69
2023-05-21T13:38:38.428Z,100830.34
2023-05-21T13:41:07.124Z,100869.41
2023-05-21T13:43:36.983Z,100869.69
2023-05-21T13:46:05.922Z,100872.88
2023-05-21T13:48:34.439Z,100885.94
2023-05-21T13:51:03.020Z,100881.63
2023-05-21T13:53:31.555Z,100826.16
2023-05-21T13:56:00.224Z,100890.38
2023-05-21T13:58:28.825Z,100876.00
2023-05-21T14:00:58.850Z,100864.09
2023-05-21T14:03:27.772Z,100832.41
2023-05-21T14:05:56.380Z,100850.53
2023-05-21T14:08:27.557Z,100821.19
2023-05-21T14:10:56.270Z,100872.84
2023-05-21T14:13:25.066Z,100881.47
2023-05-21T14:15:53.590Z,100883.06
2023-05-21T14:18:23.655Z,100880.41
2023-05-21T14:20:52.303Z,100865.78
2023-05-21T14:23:20.832Z,100823.16
2023-05-21T14:25:49.322Z,100847.13
2023-05-21T14:28:17.882Z,100848.88
2023-05-21T14:30:46.676Z,100879.91
2023-05-21T14:33:15.375Z,100867.56
2023-05-21T14:35:45.329Z,100891.41
2023-05-21T14:38:14.279Z,100864.50
2023-05-21T14:40:43.495Z,100875.88
2023-05-21T14:43:12.126Z,100883.94
2023-05-21T14:45:41.903Z,100868.75
2023-05-21T14:48:11.867Z,100820.97
2023-05-21T14:50:40.969Z,100886.78
2023-05-21T14:53:13.013Z,100890.50
2023-05-21T14:55:41.858Z,100892.94
2023-05-21T14:58:11.200Z,100879.94
2023-05-21T15:00:40.879Z,100890.09
2023-05-21T15:03:09.460Z,100812.81
2023-05-21T15:05:38.537Z,100882.06
2023-05-21T15:08:09.590Z,100841.31
2023-05-21T15:10:39.670Z,100871.47
2023-05-21T15:13:08.280Z,100811.66
2023-05-21T15:15:37.269Z,100862.03
2023-05-21T15:18:06.210Z,100853.63
2023-05-21T15:20:35.017Z,100866.69
2023-05-21T15:25:35.687Z,100855.50
2023-05-21T15:28:06.418Z,100837.59
2023-05-21T15:30:34.997Z,100742.81
2023-05-21T15:33:03.573Z,100781.50
2023-05-21T15:35:32.305Z,100859.13
2023-05-21T15:38:01.018Z,100862.41
2023-05-21T15:40:30.922Z,100865.06
2023-05-21T15:42:59.443Z,100857.13
2023-05-21T15:45:29.380Z,100850.63
2023-05-21T15:47:58.039Z,100740.94
2023-05-21T15:50:26.605Z,100850.94
2023-05-21T15:52:55.237Z,100823.13
2023-05-21T15:55:23.869Z,100858.97
2023-05-21T15:57:53.893Z,100855.38
2023-05-21T16:00:25.497Z,100856.69
2023-05-21T16:02:55.849Z,100806.50
2023-05-21T16:05:24.816Z,100815.00
2023-05-21T16:07:53.423Z,100812.38
2023-05-21T16:10:23.778Z,100727.31
2023-05-21T16:12:53.638Z,100850.94
2023-05-21T16:15:22.547Z,100852.94
2023-05-21T16:17:51.156Z,100795.03
2023-05-21T16:20:22.086Z,100747.94
2023-05-21T16:22:51.154Z,100848.91
2023-05-21T16:25:20.133Z,100848.91
2023-05-21T16:27:50.352Z,100850.44
2023-05-21T16:30:18.997Z,100750.88
2023-05-21T16:32:47.933Z,100848.56
2023-05-21T16:35:18.023Z,100726.09
2023-05-21T16:37:48.663Z,100836.34
2023-05-21T16:40:17.333Z,100769.16
2023-05-21T16:42:45.895Z,100826.00
2023-05-21T16:45:21.077Z,100831.31
2023-05-21T16:47:50.243Z,100782.16
2023-05-21T16:50:20.748Z,100812.81
2023-05-21T16:52:50.977Z,100741.13
2023-05-21T16:55:19.568Z,100816.16
2023-05-21T16:57:48.589Z,100819.88
2023-05-21T17:00:17.873Z,100785.47
2023-05-21T17:02:56.111Z,100822.72
2023-05-21T17:05:26.621Z,100759.31
2023-05-21T17:07:56.553Z,100823.72
2023-05-21T17:10:25.621Z,100780.03
2023-05-21T17:12:54.530Z,100829.25
2023-05-21T17:15:23.161Z,100823.44
2023-05-21T17:17:51.762Z,100827.97
2023-05-21T17:20:20.377Z,100833.25
2023-05-21T17:22:48.993Z,100826.16
2023-05-21T17:25:18.857Z,100830.13
2023-05-21T17:27:47.450Z,100832.06
2023-05-21T17:30:16.024Z,100832.00
2023-05-21T17:32:44.756Z,100827.59
2023-05-21T17:35:13.584Z,100839.16
2023-05-21T17:37:43.483Z,100832.50
2023-05-21T17:40:13.358Z,100806.31
2023-05-21T17:42:43.268Z,100827.28
2023-05-21T17:45:12.709Z,100824.00
2023-05-21T17:47:41.313Z,100811.84
2023-05-21T17:50:11.059Z,100812.97
2023-05-21T17:52:39.717Z,100829.97
2023-05-21T17:55:09.152Z,100811.97
2023-05-21T17:57:38.664Z,100801.41
2023-05-21T18:00:10.359Z,100824.28
2023-05-21T18:02:41.927Z,100818.38
2023-05-21T18:05:10.651Z,100832.56
2023-05-21T18:07:39.814Z,100802.09
2023-05-21T18:10:10.289Z,100810.75
2023-05-21T18:12:39.001Z,100831.81
2023-05-21T18:15:10.616Z,100833.75
2023-05-21T18:17:39.199Z,100831.28
2023-05-21T18:20:09.572Z,100795.78
2023-05-21T18:22:38.135Z,100835.56
2023-05-21T18:25:08.255Z,100841.72
2023-05-21T18:27:37.994Z,100835.56
2023-05-21T18:30:10.194Z,100838.13
2023-05-21T18:32:39.588Z,100838.66
2023-05-21T18:35:12.419Z,100811.88
2023-05-21T18:37:43.014Z,100650.50
2023-05-21T18:40:13.203Z,100836.81
2023-05-21T18:42:42.067Z,100734.78
2023-05-21T18:45:13.615Z,100775.38
2023-05-21T18:47:43.240Z,100839.19
2023-05-21T18:50:15.413Z,100843.25
2023-05-21T18:52:44.085Z,100797.41
2023-05-21T18:55:12.542Z,100842.13
2023-05-21T18:57:41.274Z,100826.72
2023-05-21T19:00:13.808Z,100846.41
2023-05-21T19:02:45.132Z,100807.91
2023-05-21T19:05:14.039Z,100843.88
2023-05-21T19:07:42.667Z,100844.25
2023-05-21T19:10:13.988Z,100840.59
2023-05-21T19:12:43.869Z,100843.47
2023-05-21T19:15:15.025Z,100850.38
2023-05-21T19:17:43.694Z,100841.53
2023-05-21T19:20:22.782Z,100851.81
2023-05-21T19:22:51.986Z,100853.63
2023-05-21T19:25:20.584Z,100851.97
2023-05-21T19:27:49.344Z,100861.00
2023-05-21T19:30:20.750Z,100864.56
2023-05-21T19:32:49.260Z,100864.66
2023-05-21T19:35:18.000Z,100863.19
2023-05-21T19:37:46.876Z,100867.22
2023-05-21T19:40:17.770Z,100867.22
2023-05-21T19:42:46.418Z,100867.81
2023-05-21T19:45:15.692Z,100867.88
2023-05-21T19:47:46.045Z,100857.13
2023-05-21T19:50:14.638Z,100860.97
2023-05-21T19:52:43.166Z,100812.16
2023-05-21T19:55:12.048Z,100826.81
2023-05-21T19:57:42.329Z,100853.34
2023-05-21T20:00:14.573Z,100861.34
2023-05-21T20:02:43.363Z,100852.78
2023-05-21T20:05:13.857Z,100858.75
2023-05-21T20:07:42.386Z,100851.63
2023-05-21T20:10:11.372Z,100856.41
2023-05-21T20:12:41.100Z,100854.69
2023-05-21T20:15:13.201Z,100850.34
2023-05-21T20:17:44.186Z,100855.41
2023-05-21T20:20:14.776Z,100851.59
2023-05-21T20:22:43.283Z,100863.38
2023-05-21T20:25:11.767Z,100859.66
2023-05-21T20:27:40.245Z,100853.66
2023-05-21T20:30:10.246Z,100855.53
2023-05-21T20:32:38.769Z,100859.81
2023-05-21T20:35:10.221Z,100851.03
2023-05-21T20:37:40.350Z,100857.53
2023-05-21T20:40:13.377Z,100858.41
2023-05-21T20:42:45.115Z,100857.78
2023-05-21T20:45:15.792Z,100863.75
2023-05-21T20:47:44.777Z,100861.53
2023-05-21T20:50:13.336Z,100858.91
2023-05-21T20:52:45.528Z,100856.22
2023-05-21T20:55:15.523Z,100854.41
2023-05-21T20:57:44.108Z,100850.63
2023-05-21T21:00:15.871Z,100852.22
2023-05-21T21:02:44.443Z,100853.69
2023-05-21T21:05:13.099Z,100856.47
2023-05-21T21:07:43.130Z,100850.81
2023-05-21T21:10:12.112Z,100853.31
2023-05-21T21:12:40.637Z,100855.06
2023-05-21T21:15:10.914Z,100849.91
2023-05-21T21:17:39.461Z,100853.00
2023-05-21T21:20:10.822Z,100852.84
2023-05-21T21:22:39.361Z,100852.75
2023-05-21T21:25:10.725Z,100834.06
2023-05-21T21:27:39.434Z,100856.00
2023-05-21T21:30:09.845Z,100851.44
2023-05-21T21:32:38.416Z,100860.78
2023-05-21T21:35:07.935Z,100858.16
2023-05-21T21:37:36.717Z,100860.47
2023-05-21T21:40:06.783Z,100856.59
2023-05-21T21:42:36.932Z,100855.81
2023-05-21T21:45:06.551Z,100837.84
2023-05-21T21:47:35.017Z,100857.75
2023-05-21T21:50:03.519Z,100753.13
2023-05-21T21:52:32.562Z,100856.91
2023-05-21T21:55:01.079Z,100862.44
2023-05-21T21:57:29.985Z,100859.75
2023-05-21T22:00:00.135Z,100850.03
2023-05-21T22:02:29.269Z,100760.69
2023-05-21T22:04:58.040Z,100771.03
2023-05-21T22:07:28.777Z,100837.09
2023-05-21T22:09:57.251Z,100856.97
2023-05-21T22:12:25.683Z,100848.56
2023-05-21T22:14:55.394Z,100803.66
2023-05-21T22:17:25.974Z,100847.28
2023-05-21T22:19:54.418Z,100851.13
2023-05-21T22:22:23.282Z,100851.13
2023-05-21T22:24:51.971Z,100859.50
2023-05-21T22:27:20.584Z,100858.72
2023-05-21T22:29:49.150Z,100856.91
2023-05-21T22:32:17.622Z,100854.94
2023-05-21T22:34:47.536Z,100852.72
2023-05-21T22:37:16.042Z,100847.03
2023-05-21T22:39:44.614Z,100851.72
2023-05-21T22:42:13.289Z,100846.50
2023-05-21T22:44:41.934Z,100851.06
2023-05-21T22:47:10.431Z,100855.00
2023-05-21T22:49:40.699Z,100848.34
2023-05-21T22:52:10.825Z,100855.31
2023-05-21T22:54:39.305Z,100843.78
2023-05-21T22:57:07.774Z,100851.41
2023-05-21T22:59:36.253Z,100855.34
2023-05-21T23:02:05.171Z,100846.75
2023-05-21T23:04:43.338Z,100853.53
2023-05-21T23:07:14.168Z,100854.03
2023-05-21T23:09:42.744Z,100854.41
2023-05-21T23:12:12.080Z,100807.88
2023-05-21T23:14:40.597Z,100852.09
2023-05-21T23:17:09.708Z,100850.56
2023-05-21T23:19:39.206Z,100846.50
2023-05-21T23:22:07.852Z,100850.00
2023-05-21T23:24:39.093Z,100850.06
2023-05-21T23:27:07.620Z,100844.00
2023-05-21T23:29:36.134Z,100845.06
2023-05-21T23:32:05.663Z,100845.88
2023-05-21T23:34:34.136Z,100844.56
2023-05-21T23:37:02.626Z,100840.16
2023-05-21T23:39:31.044Z,100796.91
2023-05-21T23:42:01.289Z,100833.59
2023-05-21T23:44:29.807Z,100849.28
2023-05-21T23:46:58.293Z,100836.31
2023-05-21T23:49:26.784Z,100803.19
2023-05-21T23:51:55.579Z,100790.66
2023-05-21T23:54:24.030Z,100830.81
2023-05-21T23:56:52.460Z,100836.47
2023-05-21T23:59:22.261Z,100832.28
